Time;durP1;ratioP1;P1;durP2;ratioP2;P2;SDS_P1;SDS_P2;PMS_P1;PMS_P2;Temp;Humidity;BMP_temperature;BMP_pressure;BME280_temperature;BME280_humidity;BME280_pressure;Samples;Min_cycle;Max_cycle;Signal;HPM_P1;HPM_P2
2021/01/17 00:01:46;;;;;;;35.75;11.55;;;;;;;;;;5084021;28;20033;-77
2021/01/17 00:04:12;;;;;;;30.38;10.93;;;;;;;;;;5086701;28;20121;-77
2021/01/17 00:06:39;;;;;;;33.47;11.98;;;;;;;;;;5085790;28;20086;-77
2021/01/17 00:09:06;;;;;;;27.75;10.85;;;;;;;;;;5086872;28;20459;-77
2021/01/17 00:11:33;;;;;;;33.33;11.55;;;;;;;;;;5096152;28;20185;-76
2021/01/17 00:14:03;;;;;;;29.60;11.48;;;;;;;;;;5087255;28;20044;-76
2021/01/17 00:16:30;;;;;;;31.70;12.32;;;;;;;;;;5087048;28;20052;-77
2021/01/17 00:18:57;;;;;;;26.13;10.18;;;;;;;;;;5086313;28;20093;-76
2021/01/17 00:21:24;;;;;;;29.80;10.70;;;;;;;;;;5080205;28;20055;-77
2021/01/17 00:23:50;;;;;;;27.80;10.50;;;;;;;;;;5085501;28;20129;-77
2021/01/17 00:26:17;;;;;;;25.90;10.32;;;;;;;;;;5085740;28;20443;-76
2021/01/17 00:28:45;;;;;;;28.45;11.43;;;;;;;;;;5084663;28;20455;-77
2021/01/17 00:31:12;;;;;;;28.95;11.10;;;;;;;;;;5084019;28;20052;-76
2021/01/17 00:33:38;;;;;;;23.50;9.40;;;;;;;;;;5085019;28;20056;-77
2021/01/17 00:36:06;;;;;;;27.17;10.65;;;;;;;;;;5083301;28;20048;-76
2021/01/17 00:38:32;;;;;;;24.13;9.40;;;;;;;;;;5070989;28;20155;-76
2021/01/17 00:40:59;;;;;;;24.70;9.93;;;;;;;;;;5070888;28;20549;-77
2021/01/17 00:43:26;;;;;;;25.75;10.27;;;;;;;;;;5071751;28;20126;-76
2021/01/17 00:45:53;;;;;;;26.00;10.43;;;;;;;;;;5071156;28;20060;-76
2021/01/17 00:48:20;;;;;;;26.83;10.60;;;;;;;;;;5070465;28;20098;-76
2021/01/17 00:50:47;;;;;;;23.67;10.45;;;;;;;;;;5070007;28;20071;-76
2021/01/17 00:53:13;;;;;;;24.83;10.52;;;;;;;;;;5072296;28;20052;-76
2021/01/17 00:55:41;;;;;;;29.33;10.95;;;;;;;;;;5070149;28;20048;-76
2021/01/17 00:58:08;;;;;;;29.98;10.50;;;;;;;;;;5072326;28;20052;-77
2021/01/17 01:00:34;;;;;;;27.33;9.98;;;;;;;;;;5070627;28;20048;-77
2021/01/17 01:03:01;;;;;;;25.33;9.93;;;;;;;;;;5070792;28;20084;-77
2021/01/17 01:05:28;;;;;;;25.73;10.30;;;;;;;;;;5071112;28;20083;-77
2021/01/17 01:07:54;;;;;;;27.65;10.63;;;;;;;;;;5071189;28;20420;-76
2021/01/17 01:10:25;;;;;;;27.35;10.45;;;;;;;;;;5072369;28;20095;-77
2021/01/17 01:12:55;;;;;;;24.40;10.63;;;;;;;;;;5070934;28;20614;-76
2021/01/17 01:15:22;;;;;;;36.50;11.57;;;;;;;;;;5070849;28;20076;-77
2021/01/17 01:17:52;;;;;;;25.02;10.30;;;;;;;;;;5068204;28;20428;-77
2021/01/17 01:20:19;;;;;;;42.17;11.32;;;;;;;;;;5074478;28;20052;-78
2021/01/17 01:22:46;;;;;;;26.98;9.18;;;;;;;;;;5071416;28;20071;-77
2021/01/17 01:25:13;;;;;;;24.98;9.57;;;;;;;;;;5071342;28;20067;-77
2021/01/17 01:27:40;;;;;;;28.98;10.18;;;;;;;;;;5072698;28;20750;-77
2021/01/17 01:30:07;;;;;;;28.13;10.38;;;;;;;;;;5071056;28;20044;-77
2021/01/17 01:32:33;;;;;;;24.60;10.00;;;;;;;;;;5071113;28;20048;-77
2021/01/17 01:35:00;;;;;;;27.83;9.93;;;;;;;;;;5071555;28;20519;-77
2021/01/17 01:37:27;;;;;;;28.27;11.15;;;;;;;;;;5072224;28;20469;-77
2021/01/17 01:39:53;;;;;;;32.75;10.23;;;;;;;;;;5074562;28;20040;-77
2021/01/17 01:42:20;;;;;;;27.83;10.10;;;;;;;;;;5081228;28;20066;-77
2021/01/17 01:44:47;;;;;;;31.27;10.25;;;;;;;;;;5071918;28;20040;-76
2021/01/17 01:47:15;;;;;;;28.65;10.00;;;;;;;;;;5070364;28;20087;-77
2021/01/17 01:49:42;;;;;;;26.35;10.27;;;;;;;;;;5081048;28;20048;-77
2021/01/17 01:52:11;;;;;;;24.13;9.40;;;;;;;;;;5074956;28;20413;-77
2021/01/17 01:54:38;;;;;;;29.85;10.35;;;;;;;;;;5070230;28;20087;-77
2021/01/17 01:57:05;;;;;;;26.98;9.85;;;;;;;;;;5069804;28;20045;-77
2021/01/17 01:59:36;;;;;;;29.05;10.55;;;;;;;;;;5069884;28;20072;-77
2021/01/17 02:02:10;;;;;;;28.98;9.95;;;;;;;;;;5071390;28;20044;-77
2021/01/17 02:04:37;;;;;;;24.90;9.90;;;;;;;;;;5070690;28;20052;-76
2021/01/17 02:07:22;;;;;;;29.45;10.18;;;;;;;;;;5071951;28;20064;-77
2021/01/17 02:09:50;;;;;;;28.00;10.43;;;;;;;;;;5067533;28;20132;-77
2021/01/17 02:12:29;;;;;;;25.02;9.48;;;;;;;;;;5083170;28;20059;-77
2021/01/17 02:15:02;;;;;;;25.23;9.23;;;;;;;;;;5071080;28;20591;-77
2021/01/17 02:17:29;;;;;;;25.60;9.27;;;;;;;;;;5070142;28;20049;-77
2021/01/17 02:19:56;;;;;;;26.95;9.85;;;;;;;;;;5070622;28;20124;-77
2021/01/17 02:22:23;;;;;;;29.95;11.13;;;;;;;;;;5071481;28;20443;-77
2021/01/17 02:25:11;;;;;;;21.45;8.55;;;;;;;;;;5069352;28;20614;-78
2021/01/17 02:27:39;;;;;;;26.48;9.00;;;;;;;;;;5091287;28;20052;-77
2021/01/17 02:30:07;;;;;;;28.88;10.65;;;;;;;;;;5072544;28;20793;-77
2021/01/17 02:32:35;;;;;;;24.63;10.50;;;;;;;;;;5069749;28;20092;-77
2021/01/17 02:35:02;;;;;;;27.48;10.23;;;;;;;;;;5069096;28;20460;-77
2021/01/17 02:37:47;;;;;;;29.08;10.57;;;;;;;;;;5071562;28;20123;-77
2021/01/17 02:40:15;;;;;;;32.15;10.60;;;;;;;;;;5069540;28;20064;-77
2021/01/17 02:42:42;;;;;;;27.00;10.07;;;;;;;;;;5078763;28;20071;-77
2021/01/17 02:45:10;;;;;;;26.23;9.98;;;;;;;;;;5070909;28;20041;-77
2021/01/17 02:47:36;;;;;;;34.90;10.55;;;;;;;;;;5069811;28;20098;-77
2021/01/17 02:50:03;;;;;;;31.55;11.05;;;;;;;;;;5075773;28;20046;-77
2021/01/17 02:52:35;;;;;;;28.95;11.30;;;;;;;;;;5070759;28;20048;-77
2021/01/17 02:55:02;;;;;;;27.42;10.57;;;;;;;;;;5056456;28;20078;-77
2021/01/17 02:57:32;;;;;;;34.30;11.90;;;;;;;;;;5070285;28;20461;-77
2021/01/17 03:00:07;;;;;;;31.63;9.82;;;;;;;;;;5069654;28;20094;-77
2021/01/17 03:02:36;;;;;;;26.92;10.82;;;;;;;;;;5070477;28;20059;-77
2021/01/17 03:05:05;;;;;;;34.22;10.60;;;;;;;;;;5070850;28;20052;-77
2021/01/17 03:07:33;;;;;;;29.40;10.77;;;;;;;;;;5069573;28;20747;-77
2021/01/17 03:10:01;;;;;;;29.77;10.77;;;;;;;;;;5069641;28;20048;-77
2021/01/17 03:12:28;;;;;;;35.65;12.07;;;;;;;;;;5070302;28;20135;-77
2021/01/17 03:14:55;;;;;;;27.63;10.40;;;;;;;;;;5069427;28;20056;-77
2021/01/17 03:17:22;;;;;;;32.47;10.70;;;;;;;;;;5078600;28;20149;-77
2021/01/17 03:19:48;;;;;;;34.63;11.45;;;;;;;;;;5077191;28;20041;-77
2021/01/17 03:22:15;;;;;;;32.30;10.95;;;;;;;;;;5069523;28;20090;-77
2021/01/17 03:24:42;;;;;;;25.98;9.45;;;;;;;;;;5061302;28;20095;-77
2021/01/17 03:27:10;;;;;;;29.38;10.82;;;;;;;;;;5061815;28;20692;-77
2021/01/17 03:29:37;;;;;;;29.77;10.48;;;;;;;;;;5068900;28;20080;-77
2021/01/17 03:32:04;;;;;;;32.35;9.75;;;;;;;;;;5069196;28;20630;-77
2021/01/17 03:34:31;;;;;;;35.63;11.18;;;;;;;;;;5069205;28;20053;-77
2021/01/17 03:36:57;;;;;;;34.50;11.10;;;;;;;;;;5068692;28;20586;-77
2021/01/17 03:39:27;;;;;;;25.83;9.82;;;;;;;;;;5068443;28;20511;-77
2021/01/17 03:41:53;;;;;;;31.65;10.82;;;;;;;;;;5068814;28;20460;-77
2021/01/17 03:44:20;;;;;;;25.55;9.73;;;;;;;;;;5068818;28;20045;-77
2021/01/17 03:46:47;;;;;;;30.42;10.35;;;;;;;;;;5070450;28;20080;-77
2021/01/17 03:49:14;;;;;;;35.20;11.23;;;;;;;;;;5070389;28;20088;-77
2021/01/17 03:51:40;;;;;;;33.95;10.88;;;;;;;;;;5070048;28;20464;-77
2021/01/17 03:54:08;;;;;;;28.63;9.18;;;;;;;;;;5075401;28;20061;-77
2021/01/17 03:56:34;;;;;;;29.45;11.38;;;;;;;;;;5069220;28;20076;-77
2021/01/17 03:59:01;;;;;;;35.75;12.75;;;;;;;;;;5068895;28;20057;-77
2021/01/17 04:01:30;;;;;;;26.65;11.10;;;;;;;;;;5070474;28;20136;-77
2021/01/17 04:03:58;;;;;;;37.20;12.73;;;;;;;;;;5072930;28;20131;-77
2021/01/17 04:06:25;;;;;;;30.95;12.10;;;;;;;;;;5070736;28;20056;-77
2021/01/17 04:08:52;;;;;;;34.20;12.07;;;;;;;;;;5067483;28;20143;-77
2021/01/17 04:11:19;;;;;;;32.67;11.70;;;;;;;;;;5068780;28;20109;-77
2021/01/17 04:13:45;;;;;;;34.70;11.93;;;;;;;;;;5072372;28;20450;-77
2021/01/17 04:16:12;;;;;;;33.92;11.07;;;;;;;;;;5073121;28;20135;-77
2021/01/17 04:18:42;;;;;;;32.13;11.70;;;;;;;;;;5073639;28;20055;-77
2021/01/17 04:21:09;;;;;;;32.40;11.63;;;;;;;;;;5075420;28;20485;-77
2021/01/17 04:23:36;;;;;;;29.58;10.77;;;;;;;;;;5071491;28;20477;-77
2021/01/17 04:26:03;;;;;;;31.77;12.25;;;;;;;;;;5072303;28;20118;-77
2021/01/17 04:28:29;;;;;;;39.17;12.18;;;;;;;;;;5071338;28;20055;-77
2021/01/17 04:30:56;;;;;;;37.78;12.18;;;;;;;;;;5077289;28;20080;-77
2021/01/17 04:33:23;;;;;;;33.58;10.88;;;;;;;;;;5072667;28;20118;-77
2021/01/17 04:35:50;;;;;;;29.42;11.70;;;;;;;;;;5073123;28;20041;-77
2021/01/17 04:38:18;;;;;;;32.17;10.75;;;;;;;;;;5072522;28;20079;-77
2021/01/17 04:40:45;;;;;;;29.05;10.63;;;;;;;;;;5065703;28;20131;-77
2021/01/17 04:43:21;;;;;;;36.08;11.40;;;;;;;;;;5075749;28;21534;-77
2021/01/17 04:45:48;;;;;;;32.92;11.30;;;;;;;;;;5072419;28;20151;-77
2021/01/17 04:48:16;;;;;;;35.72;12.45;;;;;;;;;;5073649;28;20491;-77
2021/01/17 04:50:42;;;;;;;30.67;11.27;;;;;;;;;;5072351;28;20546;-77
2021/01/17 04:53:11;;;;;;;31.30;11.40;;;;;;;;;;5073026;28;20076;-77
2021/01/17 04:55:39;;;;;;;29.95;10.88;;;;;;;;;;5073329;28;20630;-77
2021/01/17 04:58:10;;;;;;;32.90;10.90;;;;;;;;;;5072186;28;20102;-77
2021/01/17 05:00:57;;;;;;;28.30;10.55;;;;;;;;;;5074033;28;20040;-77
2021/01/17 05:03:26;;;;;;;31.92;10.88;;;;;;;;;;5073044;28;20052;-77
2021/01/17 05:05:53;;;;;;;31.13;10.15;;;;;;;;;;5072535;28;20465;-77
2021/01/17 05:08:42;;;;;;;33.92;10.30;;;;;;;;;;5072304;28;20076;-77
2021/01/17 05:11:18;;;;;;;28.92;9.65;;;;;;;;;;5075900;28;20058;-77
2021/01/17 05:13:48;;;;;;;29.08;8.98;;;;;;;;;;5079587;28;20147;-77
2021/01/17 05:16:20;;;;;;;29.23;11.00;;;;;;;;;;5073884;28;20049;-77
2021/01/17 05:18:47;;;;;;;34.50;10.45;;;;;;;;;;5064415;28;20044;-77
2021/01/17 05:21:20;;;;;;;35.05;11.00;;;;;;;;;;5070668;28;20101;-77
2021/01/17 05:23:47;;;;;;;26.60;9.60;;;;;;;;;;5063981;28;20072;-77
2021/01/17 05:26:14;;;;;;;30.15;11.27;;;;;;;;;;5071116;28;20053;-77
2021/01/17 05:28:41;;;;;;;29.20;9.88;;;;;;;;;;5068548;28;20135;-77
2021/01/17 05:31:08;;;;;;;28.63;9.75;;;;;;;;;;5078814;28;20052;-77
2021/01/17 05:33:35;;;;;;;29.55;10.32;;;;;;;;;;5072611;28;20071;-77
2021/01/17 05:36:01;;;;;;;32.28;10.32;;;;;;;;;;5070894;28;20131;-77
2021/01/17 05:38:28;;;;;;;29.17;10.45;;;;;;;;;;5069763;28;20059;-77
2021/01/17 05:40:55;;;;;;;27.38;9.88;;;;;;;;;;5068454;28;20454;-77
2021/01/17 05:43:22;;;;;;;27.48;9.30;;;;;;;;;;5067800;28;20084;-77
2021/01/17 05:45:48;;;;;;;27.58;9.95;;;;;;;;;;5079320;28;20049;-77
2021/01/17 05:48:16;;;;;;;26.40;10.50;;;;;;;;;;5079196;28;20468;-77
2021/01/17 05:50:44;;;;;;;30.70;11.10;;;;;;;;;;5072023;28;20053;-77
2021/01/17 05:53:11;;;;;;;32.83;11.50;;;;;;;;;;5070954;28;20098;-77
2021/01/17 05:55:39;;;;;;;25.13;9.65;;;;;;;;;;5070002;28;20159;-77
2021/01/17 05:58:20;;;;;;;29.73;10.05;;;;;;;;;;5072368;28;20646;-77
2021/01/17 06:00:47;;;;;;;29.15;9.52;;;;;;;;;;5073348;28;20131;-77
2021/01/17 06:03:17;;;;;;;31.55;10.38;;;;;;;;;;5069708;28;20052;-77
2021/01/17 06:05:46;;;;;;;33.70;11.00;;;;;;;;;;5070828;28;20068;-76
2021/01/17 06:08:18;;;;;;;32.33;10.10;;;;;;;;;;5070881;28;20131;-77
2021/01/17 06:10:46;;;;;;;30.02;9.90;;;;;;;;;;5064212;28;20139;-77
2021/01/17 06:13:25;;;;;;;30.02;10.57;;;;;;;;;;5069428;28;20650;-77
2021/01/17 06:15:56;;;;;;;33.05;8.93;;;;;;;;;;5066556;28;20059;-77
2021/01/17 06:18:23;;;;;;;28.65;10.73;;;;;;;;;;5071255;28;20052;-77
2021/01/17 06:20:59;;;;;;;36.08;11.57;;;;;;;;;;5069784;28;20137;-77
2021/01/17 06:23:34;;;;;;;37.15;9.93;;;;;;;;;;5075097;28;20040;-77
2021/01/17 06:26:06;;;;;;;28.30;10.82;;;;;;;;;;5076242;28;20044;-77
2021/01/17 06:28:37;;;;;;;37.25;10.85;;;;;;;;;;5069386;28;20722;-77
2021/01/17 06:31:06;;;;;;;26.15;10.27;;;;;;;;;;5073536;28;20083;-76
2021/01/17 06:33:33;;;;;;;30.17;10.25;;;;;;;;;;5071229;28;20082;-77
2021/01/17 06:36:16;;;;;;;31.55;11.57;;;;;;;;;;5068927;28;20672;-77
2021/01/17 06:38:43;;;;;;;29.50;10.73;;;;;;;;;;5069597;28;20728;-77
2021/01/17 06:41:12;;;;;;;39.00;12.88;;;;;;;;;;5069709;28;20044;-77
2021/01/17 06:43:40;;;;;;;35.15;11.10;;;;;;;;;;5078929;28;20063;-77
2021/01/17 06:46:07;;;;;;;33.60;11.32;;;;;;;;;;5070667;28;20048;-77
2021/01/17 06:48:35;;;;;;;30.02;10.70;;;;;;;;;;5070499;28;20076;-77
2021/01/17 06:51:18;;;;;;;31.67;10.18;;;;;;;;;;5070056;28;20052;-77
2021/01/17 06:53:52;;;;;;;27.70;10.35;;;;;;;;;;5075084;28;20127;-77
2021/01/17 06:56:19;;;;;;;26.10;9.77;;;;;;;;;;5073083;28;20124;-77
2021/01/17 06:58:46;;;;;;;32.20;11.63;;;;;;;;;;5069288;28;20044;-77
2021/01/17 07:01:15;;;;;;;38.65;12.35;;;;;;;;;;5069261;28;20091;-77
2021/01/17 07:03:47;;;;;;;33.30;10.88;;;;;;;;;;5070529;28;20143;-77
2021/01/17 07:06:26;;;;;;;26.30;10.40;;;;;;;;;;5070860;28;20136;-77
2021/01/17 07:09:01;;;;;;;33.42;11.68;;;;;;;;;;5070240;28;20629;-77
2021/01/17 07:11:51;;;;;;;27.95;9.73;;;;;;;;;;5070505;28;20044;-77
2021/01/17 07:14:22;;;;;;;35.10;12.20;;;;;;;;;;5070974;28;20075;-77
2021/01/17 07:16:52;;;;;;;29.05;10.75;;;;;;;;;;5063459;28;20131;-77
2021/01/17 07:19:20;;;;;;;31.73;10.63;;;;;;;;;;5068597;28;20051;-77
2021/01/17 07:21:51;;;;;;;32.28;11.27;;;;;;;;;;5077656;28;20056;-77
2021/01/17 07:24:20;;;;;;;32.78;11.45;;;;;;;;;;5071035;28;20076;-78
2021/01/17 07:27:03;;;;;;;31.75;10.75;;;;;;;;;;5061739;28;20476;-77
2021/01/17 07:29:34;;;;;;;32.70;11.77;;;;;;;;;;5069458;28;20711;-77
2021/01/17 07:32:01;;;;;;;35.35;11.00;;;;;;;;;;5071912;28;20187;-77
2021/01/17 07:34:31;;;;;;;33.22;10.85;;;;;;;;;;5069582;28;20051;-77
2021/01/17 07:37:01;;;;;;;37.95;12.07;;;;;;;;;;5071318;28;20064;-77
2021/01/17 07:39:33;;;;;;;29.90;10.18;;;;;;;;;;5082335;28;20131;-77
2021/01/17 07:42:02;;;;;;;24.83;10.00;;;;;;;;;;5069493;28;20045;-77
2021/01/17 07:44:32;;;;;;;31.02;10.80;;;;;;;;;;5068447;28;20053;-77
2021/01/17 07:47:05;;;;;;;36.78;12.13;;;;;;;;;;5079665;28;20504;-77
2021/01/17 07:49:34;;;;;;;32.00;11.73;;;;;;;;;;5072790;28;20056;-77
2021/01/17 07:52:04;;;;;;;39.28;12.23;;;;;;;;;;5070797;28;20087;-78
2021/01/17 07:54:34;;;;;;;36.25;11.55;;;;;;;;;;5087234;28;20094;-77
2021/01/17 07:57:08;;;;;;;29.58;10.57;;;;;;;;;;5070367;28;20041;-77
2021/01/17 07:59:34;;;;;;;34.45;12.13;;;;;;;;;;5075673;28;20040;-78
2021/01/17 08:02:01;;;;;;;28.55;11.93;;;;;;;;;;5078193;28;20048;-77
2021/01/17 08:04:29;;;;;;;33.17;12.68;;;;;;;;;;5070094;28;20059;-77
2021/01/17 08:06:57;;;;;;;37.20;13.80;;;;;;;;;;5073491;28;20481;-78
2021/01/17 08:09:43;;;;;;;34.45;13.00;;;;;;;;;;5071704;28;20449;-77
2021/01/17 08:12:10;;;;;;;37.47;14.70;;;;;;;;;;5072069;28;20087;-77
2021/01/17 08:14:40;;;;;;;33.30;11.80;;;;;;;;;;5069467;28;20084;-77
2021/01/17 08:17:20;;;;;;;38.45;12.48;;;;;;;;;;5069108;28;20055;-77
2021/01/17 08:19:55;;;;;;;35.88;13.23;;;;;;;;;;5068184;28;20056;-77
2021/01/17 08:22:22;;;;;;;36.63;12.45;;;;;;;;;;5064917;28;20495;-78
2021/01/17 08:24:55;;;;;;;37.33;12.95;;;;;;;;;;5068046;28;20080;-78
2021/01/17 08:27:38;;;;;;;40.25;13.50;;;;;;;;;;5068898;28;20068;-77
2021/01/17 08:30:13;;;;;;;42.17;14.52;;;;;;;;;;5064405;28;20057;-77
2021/01/17 08:32:40;;;;;;;39.47;14.55;;;;;;;;;;5073038;28;20079;-78
2021/01/17 08:35:11;;;;;;;51.65;16.30;;;;;;;;;;5071367;28;20904;-78
2021/01/17 08:37:38;;;;;;;52.90;16.23;;;;;;;;;;5073427;28;20548;-78
2021/01/17 08:40:05;;;;;;;42.00;15.00;;;;;;;;;;5063409;28;20123;-77
2021/01/17 08:42:33;;;;;;;45.00;14.80;;;;;;;;;;5083544;28;20680;-77
2021/01/17 08:45:19;;;;;;;39.00;15.45;;;;;;;;;;5072156;28;20139;-78
2021/01/17 08:47:46;;;;;;;34.33;12.85;;;;;;;;;;5067187;28;20078;-77
2021/01/17 08:50:32;;;;;;;35.35;14.18;;;;;;;;;;5080400;28;20106;-78
2021/01/17 08:53:18;;;;;;;38.15;15.10;;;;;;;;;;5075188;28;20443;-78
2021/01/17 08:55:49;;;;;;;35.40;14.55;;;;;;;;;;5104782;27;20049;-78
2021/01/17 08:58:17;;;;;;;37.17;16.23;;;;;;;;;;5069151;28;20136;-77
2021/01/17 09:00:49;;;;;;;37.65;14.35;;;;;;;;;;5070411;28;20048;-77
2021/01/17 09:03:30;;;;;;;40.70;14.70;;;;;;;;;;5067137;28;20421;-78
2021/01/17 09:06:13;;;;;;;39.53;14.60;;;;;;;;;;5070828;28;20061;-78
2021/01/17 09:08:41;;;;;;;43.03;15.82;;;;;;;;;;5070691;28;20488;-77
2021/01/17 09:11:23;;;;;;;43.78;16.27;;;;;;;;;;5071977;28;20448;-78
2021/01/17 09:14:09;;;;;;;45.67;17.25;;;;;;;;;;5074731;28;20178;-78
2021/01/17 09:16:38;;;;;;;49.33;18.05;;;;;;;;;;5072266;28;20102;-78
2021/01/17 09:19:08;;;;;;;50.83;21.52;;;;;;;;;;5074765;28;20130;-78
2021/01/17 09:21:35;;;;;;;51.58;18.50;;;;;;;;;;5079222;28;20094;-77
2021/01/17 09:24:06;;;;;;;42.95;18.48;;;;;;;;;;5070718;28;20052;-78
2021/01/17 09:26:34;;;;;;;54.00;19.58;;;;;;;;;;5072301;28;20048;-78
2021/01/17 09:29:01;;;;;;;45.65;16.75;;;;;;;;;;5073820;28;20103;-78
2021/01/17 09:31:29;;;;;;;40.53;15.20;;;;;;;;;;5082162;28;20114;-78
2021/01/17 09:33:57;;;;;;;36.92;15.32;;;;;;;;;;5083529;28;20044;-78
2021/01/17 09:36:24;;;;;;;46.25;17.35;;;;;;;;;;5078619;28;20048;-78
2021/01/17 09:38:51;;;;;;;42.30;13.95;;;;;;;;;;5070409;28;20099;-78
2021/01/17 09:41:25;;;;;;;40.88;13.82;;;;;;;;;;5069606;28;20489;-78
2021/01/17 09:43:53;;;;;;;37.70;14.23;;;;;;;;;;5081266;28;20059;-78
2021/01/17 09:46:24;;;;;;;32.00;12.77;;;;;;;;;;5073062;28;20048;-78
2021/01/17 09:48:55;;;;;;;36.92;14.45;;;;;;;;;;5070126;28;20064;-78
2021/01/17 09:51:22;;;;;;;39.50;13.80;;;;;;;;;;5067331;28;20130;-79
2021/01/17 09:53:56;;;;;;;39.28;15.20;;;;;;;;;;5071615;28;20499;-79
2021/01/17 09:56:23;;;;;;;38.38;14.23;;;;;;;;;;5071016;28;20056;-79
2021/01/17 09:58:50;;;;;;;33.55;14.10;;;;;;;;;;5071891;28;20040;-80
2021/01/17 10:01:17;;;;;;;33.63;14.75;;;;;;;;;;5072112;28;20185;-80
2021/01/17 10:03:45;;;;;;;39.70;15.60;;;;;;;;;;5067118;28;20416;-77
2021/01/17 10:06:12;;;;;;;35.00;13.18;;;;;;;;;;5071450;28;20582;-78
2021/01/17 10:08:39;;;;;;;40.78;14.57;;;;;;;;;;5070612;28;20070;-79
2021/01/17 10:11:07;;;;;;;34.78;13.40;;;;;;;;;;5075852;28;20040;-78
2021/01/17 10:13:36;;;;;;;34.10;12.55;;;;;;;;;;5075582;28;20045;-79
2021/01/17 10:16:03;;;;;;;33.28;12.73;;;;;;;;;;5079409;28;20044;-79
2021/01/17 10:18:30;;;;;;;32.55;13.18;;;;;;;;;;5069823;28;20045;-77
2021/01/17 10:20:58;;;;;;;30.70;13.10;;;;;;;;;;5072042;28;20183;-80
2021/01/17 10:23:30;;;;;;;29.45;12.52;;;;;;;;;;5071104;28;20052;-81
2021/01/17 10:25:58;;;;;;;30.77;12.80;;;;;;;;;;5070463;28;20044;-78
2021/01/17 10:28:26;;;;;;;30.08;12.32;;;;;;;;;;5070948;28;20102;-79
2021/01/17 10:30:57;;;;;;;30.45;12.77;;;;;;;;;;5071584;28;20854;-78
2021/01/17 10:33:24;;;;;;;27.77;11.55;;;;;;;;;;5068330;28;20135;-79
2021/01/17 10:35:53;;;;;;;26.80;10.85;;;;;;;;;;5069143;28;20055;-81
2021/01/17 10:38:25;;;;;;;30.55;12.38;;;;;;;;;;5072134;28;20052;-81
2021/01/17 10:40:52;;;;;;;32.58;14.25;;;;;;;;;;5068411;28;20080;-81
2021/01/17 10:43:33;;;;;;;35.42;15.38;;;;;;;;;;5071322;28;20543;-82
2021/01/17 10:46:02;;;;;;;30.42;13.52;;;;;;;;;;5065505;28;20067;-85
2021/01/17 10:49:03;;;;;;;28.15;13.40;;;;;;;;;;5071418;28;20055;-83
2021/01/17 10:51:35;;;;;;;28.05;12.25;;;;;;;;;;5058483;28;20393;-85
2021/01/17 10:54:03;;;;;;;24.15;11.20;;;;;;;;;;5071172;28;20083;-87
2021/01/17 10:56:34;;;;;;;27.23;12.23;;;;;;;;;;5065379;28;20047;-85
2021/01/17 10:59:01;;;;;;;27.60;11.38;;;;;;;;;;5070290;28;20112;-84
2021/01/17 11:01:31;;;;;;;26.98;11.27;;;;;;;;;;5073063;28;20040;-80
2021/01/17 11:04:00;;;;;;;24.52;11.43;;;;;;;;;;5069033;28;20060;-82
2021/01/17 11:06:29;;;;;;;24.35;11.63;;;;;;;;;;5070124;28;20049;-81
2021/01/17 11:09:01;;;;;;;29.08;11.82;;;;;;;;;;5070707;28;20054;-81
2021/01/17 11:14:42;;;;;;;28.80;11.63;;;;;;;;;;5031851;28;20046;-81
2021/01/17 11:17:31;;;;;;;23.73;10.88;;;;;;;;;;5029500;28;20045;-81
2021/01/17 11:20:57;;;;;;;;;;;;;;;;;;;;;
2021/01/17 11:23:53;;;;;;;23.50;11.00;;;;;;;;;;5017833;28;20049;-83
2021/01/17 11:26:27;;;;;;;23.55;10.10;;;;;;;;;;5029685;28;20146;-83
2021/01/17 11:29:09;;;;;;;22.65;11.13;;;;;;;;;;5052952;28;20500;-85
2021/01/17 11:31:43;;;;;;;22.90;11.13;;;;;;;;;;5081534;28;20056;-85
2021/01/17 11:34:15;;;;;;;22.33;11.30;;;;;;;;;;5076098;28;20048;-84
2021/01/17 11:36:45;;;;;;;21.33;11.07;;;;;;;;;;5071214;28;20051;-86
2021/01/17 11:39:21;;;;;;;18.33;10.00;;;;;;;;;;5071373;28;20382;-86
2021/01/17 11:41:50;;;;;;;19.58;10.07;;;;;;;;;;5064885;28;20128;-85
2021/01/17 11:44:18;;;;;;;22.45;10.80;;;;;;;;;;5071182;28;20049;-83
2021/01/17 11:46:45;;;;;;;20.30;10.25;;;;;;;;;;5071104;28;20136;-86
2021/01/17 11:49:13;;;;;;;20.05;11.13;;;;;;;;;;5071283;28;20087;-86
2021/01/17 11:51:51;;;;;;;20.40;10.15;;;;;;;;;;5071506;28;20049;-84
2021/01/17 11:54:32;;;;;;;20.50;11.02;;;;;;;;;;5072683;28;20547;-85
2021/01/17 11:57:06;;;;;;;21.67;9.95;;;;;;;;;;5079827;28;20072;-86
2021/01/17 12:02:55;;;;;;;18.27;8.10;;;;;;;;;;5067387;28;20044;-84
2021/01/17 12:05:22;;;;;;;20.50;9.18;;;;;;;;;;5071255;28;20049;-84
2021/01/17 12:07:57;;;;;;;19.67;9.50;;;;;;;;;;5071473;28;20041;-88
2021/01/17 12:10:38;;;;;;;20.00;8.82;;;;;;;;;;5071186;28;20045;-88
2021/01/17 12:16:59;;;;;;;19.52;8.38;;;;;;;;;;5055480;28;20076;-88
2021/01/17 12:19:34;;;;;;;18.60;7.60;;;;;;;;;;5037567;28;20050;-83
2021/01/17 12:22:10;;;;;;;15.10;7.53;;;;;;;;;;5063622;28;20539;-84
2021/01/17 12:24:42;;;;;;;13.98;7.25;;;;;;;;;;5067979;28;20167;-86
2021/01/17 12:27:11;;;;;;;15.18;6.13;;;;;;;;;;5064438;28;20098;-88
2021/01/17 12:29:54;;;;;;;14.93;6.63;;;;;;;;;;5072196;28;20083;-85
2021/01/17 12:32:52;;;;;;;11.50;5.43;;;;;;;;;;5045519;28;20056;-86
2021/01/17 12:35:25;;;;;;;11.63;5.97;;;;;;;;;;5080840;28;20143;-88
2021/01/17 12:38:10;;;;;;;10.52;5.07;;;;;;;;;;5061223;28;20044;-87
2021/01/17 12:40:59;;;;;;;12.27;5.90;;;;;;;;;;5053549;28;20552;-87
2021/01/17 12:43:27;;;;;;;11.55;5.95;;;;;;;;;;5072164;28;20056;-86
2021/01/17 12:46:04;;;;;;;11.48;5.43;;;;;;;;;;5073959;28;20068;-85
2021/01/17 12:48:31;;;;;;;25.57;7.40;;;;;;;;;;5074136;28;20076;-85
2021/01/17 12:51:15;;;;;;;14.38;5.60;;;;;;;;;;5074491;28;20432;-87
2021/01/17 12:57:04;;;;;;;12.30;5.78;;;;;;;;;;5091083;28;20044;-86
2021/01/17 12:59:35;;;;;;;12.90;5.68;;;;;;;;;;5076410;28;20056;-85
2021/01/17 13:02:03;;;;;;;12.98;6.15;;;;;;;;;;5076009;28;20448;-84
2021/01/17 13:04:39;;;;;;;11.10;5.88;;;;;;;;;;5073725;28;20079;-84
2021/01/17 13:07:11;;;;;;;11.02;5.47;;;;;;;;;;5074435;28;20098;-84
2021/01/17 13:09:40;;;;;;;10.80;5.03;;;;;;;;;;5073634;28;20049;-83
2021/01/17 13:12:06;;;;;;;19.00;6.00;;;;;;;;;;5079016;28;20131;-82
2021/01/17 13:14:34;;;;;;;12.35;5.63;;;;;;;;;;5076155;28;20459;-82
2021/01/17 13:17:02;;;;;;;9.40;4.78;;;;;;;;;;5072656;28;20047;-82
2021/01/17 13:19:30;;;;;;;13.00;5.47;;;;;;;;;;5071816;28;20080;-85
2021/01/17 13:22:03;;;;;;;12.82;5.85;;;;;;;;;;5072096;28;20390;-85
2021/01/17 13:24:37;;;;;;;17.95;5.68;;;;;;;;;;5074114;28;20051;-84
2021/01/17 13:27:05;;;;;;;12.45;6.00;;;;;;;;;;5072416;28;20087;-81
2021/01/17 13:29:32;;;;;;;13.40;5.93;;;;;;;;;;5073704;28;20052;-81
2021/01/17 13:32:04;;;;;;;18.75;6.55;;;;;;;;;;5071938;28;20086;-81
2021/01/17 13:34:31;;;;;;;19.95;6.90;;;;;;;;;;5081113;28;20080;-84
2021/01/17 13:36:59;;;;;;;13.63;5.95;;;;;;;;;;5072138;28;20098;-82
2021/01/17 13:39:26;;;;;;;16.75;6.63;;;;;;;;;;5070950;28;20135;-82
2021/01/17 13:41:53;;;;;;;15.07;7.50;;;;;;;;;;5069554;28;20090;-82
2021/01/17 13:44:26;;;;;;;22.33;7.93;;;;;;;;;;5070539;28;20450;-84
2021/01/17 13:47:02;;;;;;;17.38;7.35;;;;;;;;;;5067530;28;20049;-82
2021/01/17 13:49:29;;;;;;;17.05;7.82;;;;;;;;;;5072505;28;20138;-82
2021/01/17 13:52:06;;;;;;;17.20;7.90;;;;;;;;;;5071948;28;20049;-83
2021/01/17 13:54:36;;;;;;;16.77;7.80;;;;;;;;;;5072355;28;20056;-83
2021/01/17 13:57:04;;;;;;;21.33;10.40;;;;;;;;;;5071629;28;20044;-83
2021/01/17 13:59:31;;;;;;;20.17;9.80;;;;;;;;;;5071380;28;20079;-83
2021/01/17 14:01:57;;;;;;;20.45;8.57;;;;;;;;;;5071871;28;20098;-82
2021/01/17 14:04:25;;;;;;;15.10;6.93;;;;;;;;;;5071532;28;20087;-82
2021/01/17 14:06:52;;;;;;;16.25;7.88;;;;;;;;;;5072270;28;20146;-85
2021/01/17 14:09:18;;;;;;;14.75;7.72;;;;;;;;;;5072537;28;20109;-87
2021/01/17 14:11:45;;;;;;;19.38;8.57;;;;;;;;;;5072248;28;20097;-86
2021/01/17 14:14:16;;;;;;;19.77;8.93;;;;;;;;;;5071949;28;20463;-82
2021/01/17 14:16:46;;;;;;;16.10;7.60;;;;;;;;;;5069120;28;20456;-81
2021/01/17 14:19:42;;;;;;;17.20;7.15;;;;;;;;;;5062925;28;20133;-82
2021/01/17 14:22:18;;;;;;;15.85;7.57;;;;;;;;;;5075073;28;20484;-84
2021/01/17 14:24:45;;;;;;;13.93;6.80;;;;;;;;;;5071563;28;20400;-82
2021/01/17 14:27:12;;;;;;;17.83;7.28;;;;;;;;;;5071369;28;20562;-82
2021/01/17 14:29:38;;;;;;;16.17;7.82;;;;;;;;;;5071578;28;20075;-83
2021/01/17 14:32:06;;;;;;;15.52;7.47;;;;;;;;;;5069658;28;20132;-83
2021/01/17 14:34:34;;;;;;;16.05;7.57;;;;;;;;;;5080077;28;20156;-82
2021/01/17 14:37:11;;;;;;;18.17;7.90;;;;;;;;;;5068216;28;20052;-84
2021/01/17 14:39:41;;;;;;;16.52;6.88;;;;;;;;;;5070788;28;20045;-83
2021/01/17 14:42:13;;;;;;;21.00;7.13;;;;;;;;;;5071338;28;20049;-82
2021/01/17 14:44:40;;;;;;;17.27;7.50;;;;;;;;;;5071042;28;20295;-83
2021/01/17 14:47:09;;;;;;;27.63;9.48;;;;;;;;;;5070821;28;20044;-83
2021/01/17 14:49:37;;;;;;;30.40;12.15;;;;;;;;;;5082754;28;20101;-83
2021/01/17 14:52:05;;;;;;;35.78;14.60;;;;;;;;;;5077144;28;20048;-82
2021/01/17 14:54:43;;;;;;;26.33;11.77;;;;;;;;;;5072747;28;20052;-84